sensor_id;sensor_type;location;lat;lon;timestamp;P1;durP1;ratioP1;P2;durP2;ratioP2
51467;SDS011;37545;45.302;-122.946;2023-05-16T00:00:38;3.25;;;1.00;;
51467;SDS011;37545;45.302;-122.946;2023-05-16T00:03:07;1.95;;;0.90;;
51467;SDS011;37545;45.302;-122.946;2023-05-16T00:05:38;1.90;;;0.70;;
51467;SDS011;37545;45.302;-122.946;2023-05-16T00:08:06;2.25;;;0.93;;
51467;SDS011;37545;45.302;-122.946;2023-05-16T00:10:35;4.65;;;1.20;;
51467;SDS011;37545;45.302;-122.946;2023-05-16T00:13:03;2.75;;;1.02;;
51467;SDS011;37545;45.302;-122.946;2023-05-16T00:15:32;2.30;;;0.90;;
51467;SDS011;37545;45.302;-122.946;2023-05-16T00:18:00;2.17;;;0.85;;
51467;SDS011;37545;45.302;-122.946;2023-05-16T00:20:29;5.90;;;0.90;;
51467;SDS011;37545;45.302;-122.946;2023-05-16T00:22:59;2.05;;;0.80;;
51467;SDS011;37545;45.302;-122.946;2023-05-16T00:25:28;2.53;;;0.80;;
51467;SDS011;37545;45.302;-122.946;2023-05-16T00:27:56;2.97;;;0.80;;
51467;SDS011;37545;45.302;-122.946;2023-05-16T00:30:25;3.55;;;0.70;;
51467;SDS011;37545;45.302;-122.946;2023-05-16T00:32:54;2.65;;;0.95;;
51467;SDS011;37545;45.302;-122.946;2023-05-16T00:35:22;6.38;;;1.05;;
51467;SDS011;37545;45.302;-122.946;2023-05-16T00:37:51;4.07;;;0.98;;
51467;SDS011;37545;45.302;-122.946;2023-05-16T00:40:21;3.60;;;0.70;;
51467;SDS011;37545;45.302;-122.946;2023-05-16T00:42:49;2.65;;;0.80;;
51467;SDS011;37545;45.302;-122.946;2023-05-16T00:45:18;3.92;;;0.60;;
51467;SDS011;37545;45.302;-122.946;2023-05-16T00:47:46;3.97;;;0.90;;
51467;SDS011;37545;45.302;-122.946;2023-05-16T00:50:15;3.35;;;0.82;;
51467;SDS011;37545;45.302;-122.946;2023-05-16T00:52:44;2.13;;;1.02;;
51467;SDS011;37545;45.302;-122.946;2023-05-16T00:55:13;3.10;;;0.90;;
51467;SDS011;37545;45.302;-122.946;2023-05-16T00:57:43;1.42;;;0.80;;
51467;SDS011;37545;45.302;-122.946;2023-05-16T01:00:12;2.08;;;0.80;;
51467;SDS011;37545;45.302;-122.946;2023-05-16T01:02:41;1.95;;;0.82;;
51467;SDS011;37545;45.302;-122.946;2023-05-16T01:05:10;1.58;;;0.90;;
51467;SDS011;37545;45.302;-122.946;2023-05-16T01:07:39;3.47;;;0.90;;
51467;SDS011;37545;45.302;-122.946;2023-05-16T01:10:07;3.30;;;0.75;;
51467;SDS011;37545;45.302;-122.946;2023-05-16T01:12:38;2.92;;;0.90;;
51467;SDS011;37545;45.302;-122.946;2023-05-16T01:15:16;5.15;;;0.80;;
51467;SDS011;37545;45.302;-122.946;2023-05-16T01:17:52;4.63;;;0.93;;
51467;SDS011;37545;45.302;-122.946;2023-05-16T01:20:27;1.63;;;0.70;;
51467;SDS011;37545;45.302;-122.946;2023-05-16T01:23:04;3.72;;;0.90;;
51467;SDS011;37545;45.302;-122.946;2023-05-16T01:25:54;2.75;;;0.90;;
51467;SDS011;37545;45.302;-122.946;2023-05-16T01:28:33;4.90;;;0.93;;
51467;SDS011;37545;45.302;-122.946;2023-05-16T01:31:02;2.58;;;0.90;;
51467;SDS011;37545;45.302;-122.946;2023-05-16T01:33:31;2.50;;;0.90;;
51467;SDS011;37545;45.302;-122.946;2023-05-16T01:36:01;4.95;;;0.90;;
51467;SDS011;37545;45.302;-122.946;2023-05-16T01:38:36;3.30;;;1.00;;
51467;SDS011;37545;45.302;-122.946;2023-05-16T01:41:10;4.85;;;1.00;;
51467;SDS011;37545;45.302;-122.946;2023-05-16T01:43:48;4.03;;;1.08;;
51467;SDS011;37545;45.302;-122.946;2023-05-16T01:46:20;2.30;;;1.02;;
51467;SDS011;37545;45.302;-122.946;2023-05-16T01:48:52;3.13;;;0.80;;
51467;SDS011;37545;45.302;-122.946;2023-05-16T01:51:26;2.63;;;0.93;;
51467;SDS011;37545;45.302;-122.946;2023-05-16T01:54:02;4.15;;;0.80;;
51467;SDS011;37545;45.302;-122.946;2023-05-16T01:56:35;2.70;;;0.82;;
51467;SDS011;37545;45.302;-122.946;2023-05-16T01:59:07;1.48;;;0.90;;
51467;SDS011;37545;45.302;-122.946;2023-05-16T02:01:36;2.65;;;1.02;;
51467;SDS011;37545;45.302;-122.946;2023-05-16T02:04:05;4.90;;;1.05;;
51467;SDS011;37545;45.302;-122.946;2023-05-16T02:06:34;2.58;;;1.00;;
51467;SDS011;37545;45.302;-122.946;2023-05-16T02:09:02;4.97;;;1.00;;
51467;SDS011;37545;45.302;-122.946;2023-05-16T02:11:31;2.20;;;1.15;;
51467;SDS011;37545;45.302;-122.946;2023-05-16T02:13:59;5.82;;;2.10;;
51467;SDS011;37545;45.302;-122.946;2023-05-16T02:16:30;9.10;;;2.03;;
51467;SDS011;37545;45.302;-122.946;2023-05-16T02:18:58;5.93;;;1.65;;
51467;SDS011;37545;45.302;-122.946;2023-05-16T02:21:27;7.07;;;1.85;;
51467;SDS011;37545;45.302;-122.946;2023-05-16T02:23:55;3.80;;;1.55;;
51467;SDS011;37545;45.302;-122.946;2023-05-16T02:26:24;4.10;;;1.55;;
51467;SDS011;37545;45.302;-122.946;2023-05-16T02:28:52;4.82;;;1.40;;
51467;SDS011;37545;45.302;-122.946;2023-05-16T02:31:27;3.53;;;1.25;;
51467;SDS011;37545;45.302;-122.946;2023-05-16T02:33:59;2.28;;;1.30;;
51467;SDS011;37545;45.302;-122.946;2023-05-16T02:36:27;4.47;;;2.20;;
51467;SDS011;37545;45.302;-122.946;2023-05-16T02:38:56;4.53;;;1.30;;
51467;SDS011;37545;45.302;-122.946;2023-05-16T02:41:25;5.20;;;1.60;;
51467;SDS011;37545;45.302;-122.946;2023-05-16T02:43:53;3.75;;;1.40;;
51467;SDS011;37545;45.302;-122.946;2023-05-16T02:46:22;3.90;;;1.50;;
51467;SDS011;37545;45.302;-122.946;2023-05-16T02:48:53;4.20;;;1.73;;
51467;SDS011;37545;45.302;-122.946;2023-05-16T02:51:23;5.55;;;1.35;;
51467;SDS011;37545;45.302;-122.946;2023-05-16T02:53:52;4.25;;;1.45;;
51467;SDS011;37545;45.302;-122.946;2023-05-16T02:56:21;5.45;;;1.30;;
51467;SDS011;37545;45.302;-122.946;2023-05-16T02:58:52;5.32;;;2.30;;
51467;SDS011;37545;45.302;-122.946;2023-05-16T03:01:21;4.95;;;1.10;;
51467;SDS011;37545;45.302;-122.946;2023-05-16T03:03:49;7.78;;;1.50;;
51467;SDS011;37545;45.302;-122.946;2023-05-16T03:06:19;4.05;;;1.23;;
51467;SDS011;37545;45.302;-122.946;2023-05-16T03:08:48;7.90;;;2.08;;
51467;SDS011;37545;45.302;-122.946;2023-05-16T03:11:17;3.80;;;1.13;;
51467;SDS011;37545;45.302;-122.946;2023-05-16T03:13:48;2.88;;;1.50;;
51467;SDS011;37545;45.302;-122.946;2023-05-16T03:16:17;3.25;;;1.67;;
51467;SDS011;37545;45.302;-122.946;2023-05-16T03:18:46;3.15;;;1.20;;
51467;SDS011;37545;45.302;-122.946;2023-05-16T03:21:14;4.15;;;1.30;;
51467;SDS011;37545;45.302;-122.946;2023-05-16T03:23:45;5.53;;;1.63;;
51467;SDS011;37545;45.302;-122.946;2023-05-16T03:26:13;5.60;;;1.60;;
51467;SDS011;37545;45.302;-122.946;2023-05-16T03:28:42;6.15;;;1.70;;
51467;SDS011;37545;45.302;-122.946;2023-05-16T03:31:10;5.82;;;1.55;;
51467;SDS011;37545;45.302;-122.946;2023-05-16T03:33:39;5.97;;;0.93;;
51467;SDS011;37545;45.302;-122.946;2023-05-16T03:36:07;3.65;;;1.63;;
51467;SDS011;37545;45.302;-122.946;2023-05-16T03:38:36;4.20;;;1.73;;
51467;SDS011;37545;45.302;-122.946;2023-05-16T03:41:07;5.60;;;2.10;;
51467;SDS011;37545;45.302;-122.946;2023-05-16T03:43:35;8.40;;;2.30;;
51467;SDS011;37545;45.302;-122.946;2023-05-16T03:46:04;4.47;;;2.03;;
51467;SDS011;37545;45.302;-122.946;2023-05-16T03:48:33;4.32;;;1.30;;
51467;SDS011;37545;45.302;-122.946;2023-05-16T03:51:01;4.47;;;1.60;;
51467;SDS011;37545;45.302;-122.946;2023-05-16T03:53:30;5.28;;;1.55;;
51467;SDS011;37545;45.302;-122.946;2023-05-16T03:55:58;4.35;;;1.88;;
51467;SDS011;37545;45.302;-122.946;2023-05-16T03:58:29;5.32;;;1.40;;
51467;SDS011;37545;45.302;-122.946;2023-05-16T04:00:57;5.57;;;1.38;;
51467;SDS011;37545;45.302;-122.946;2023-05-16T04:03:26;3.22;;;1.40;;
51467;SDS011;37545;45.302;-122.946;2023-05-16T04:05:54;6.40;;;1.50;;
51467;SDS011;37545;45.302;-122.946;2023-05-16T04:08:23;7.75;;;2.20;;
51467;SDS011;37545;45.302;-122.946;2023-05-16T04:10:52;4.00;;;1.77;;
51467;SDS011;37545;45.302;-122.946;2023-05-16T04:13:21;5.05;;;1.65;;
51467;SDS011;37545;45.302;-122.946;2023-05-16T04:15:51;9.00;;;1.80;;
51467;SDS011;37545;45.302;-122.946;2023-05-16T04:18:20;5.10;;;1.80;;
51467;SDS011;37545;45.302;-122.946;2023-05-16T04:20:48;7.80;;;2.05;;
51467;SDS011;37545;45.302;-122.946;2023-05-16T04:23:17;5.90;;;1.70;;
51467;SDS011;37545;45.302;-122.946;2023-05-16T04:25:45;4.82;;;1.80;;
51467;SDS011;37545;45.302;-122.946;2023-05-16T04:28:14;6.40;;;1.95;;
51467;SDS011;37545;45.302;-122.946;2023-05-16T04:30:43;4.63;;;1.65;;
51467;SDS011;37545;45.302;-122.946;2023-05-16T04:33:13;6.63;;;1.83;;
51467;SDS011;37545;45.302;-122.946;2023-05-16T04:35:43;5.00;;;1.70;;
51467;SDS011;37545;45.302;-122.946;2023-05-16T04:38:11;4.90;;;1.75;;
51467;SDS011;37545;45.302;-122.946;2023-05-16T04:40:40;8.75;;;2.00;;
51467;SDS011;37545;45.302;-122.946;2023-05-16T04:43:08;6.80;;;1.90;;
51467;SDS011;37545;45.302;-122.946;2023-05-16T04:45:37;5.75;;;1.42;;
51467;SDS011;37545;45.302;-122.946;2023-05-16T04:48:07;3.30;;;1.50;;
51467;SDS011;37545;45.302;-122.946;2023-05-16T04:50:37;6.07;;;1.63;;
51467;SDS011;37545;45.302;-122.946;2023-05-16T04:53:06;3.58;;;1.55;;
51467;SDS011;37545;45.302;-122.946;2023-05-16T04:55:34;4.80;;;2.05;;
51467;SDS011;37545;45.302;-122.946;2023-05-16T04:58:03;7.05;;;1.67;;
51467;SDS011;37545;45.302;-122.946;2023-05-16T05:00:32;5.80;;;1.75;;
51467;SDS011;37545;45.302;-122.946;2023-05-16T05:03:01;3.10;;;1.40;;
51467;SDS011;37545;45.302;-122.946;2023-05-16T05:05:29;4.85;;;1.52;;
51467;SDS011;37545;45.302;-122.946;2023-05-16T05:08:00;6.05;;;1.92;;
51467;SDS011;37545;45.302;-122.946;2023-05-16T05:10:29;6.28;;;1.80;;
51467;SDS011;37545;45.302;-122.946;2023-05-16T05:12:57;4.15;;;1.65;;
51467;SDS011;37545;45.302;-122.946;2023-05-16T05:15:26;9.93;;;2.03;;
51467;SDS011;37545;45.302;-122.946;2023-05-16T05:17:54;5.45;;;1.90;;
51467;SDS011;37545;45.302;-122.946;2023-05-16T05:20:23;3.45;;;1.77;;
51467;SDS011;37545;45.302;-122.946;2023-05-16T05:22:51;5.55;;;2.10;;
51467;SDS011;37545;45.302;-122.946;2023-05-16T05:25:21;8.68;;;1.90;;
51467;SDS011;37545;45.302;-122.946;2023-05-16T05:27:50;6.35;;;2.20;;
51467;SDS011;37545;45.302;-122.946;2023-05-16T05:30:18;4.82;;;1.48;;
51467;SDS011;37545;45.302;-122.946;2023-05-16T05:32:47;7.40;;;2.00;;
51467;SDS011;37545;45.302;-122.946;2023-05-16T05:35:15;6.00;;;2.00;;
51467;SDS011;37545;45.302;-122.946;2023-05-16T05:37:44;6.88;;;1.75;;
51467;SDS011;37545;45.302;-122.946;2023-05-16T05:40:12;4.65;;;1.67;;
51467;SDS011;37545;45.302;-122.946;2023-05-16T05:42:43;3.35;;;1.52;;
51467;SDS011;37545;45.302;-122.946;2023-05-16T05:45:11;3.22;;;1.52;;
51467;SDS011;37545;45.302;-122.946;2023-05-16T05:47:41;4.63;;;1.83;;
51467;SDS011;37545;45.302;-122.946;2023-05-16T05:50:10;4.55;;;1.55;;
51467;SDS011;37545;45.302;-122.946;2023-05-16T05:52:40;6.32;;;1.67;;
51467;SDS011;37545;45.302;-122.946;2023-05-16T05:55:09;6.47;;;1.95;;
51467;SDS011;37545;45.302;-122.946;2023-05-16T05:57:37;5.07;;;1.70;;
51467;SDS011;37545;45.302;-122.946;2023-05-16T06:00:08;5.95;;;1.92;;
51467;SDS011;37545;45.302;-122.946;2023-05-16T06:02:37;5.70;;;2.00;;
51467;SDS011;37545;45.302;-122.946;2023-05-16T06:05:06;5.28;;;1.60;;
51467;SDS011;37545;45.302;-122.946;2023-05-16T06:07:35;6.43;;;1.88;;
51467;SDS011;37545;45.302;-122.946;2023-05-16T06:10:04;3.58;;;1.90;;
51467;SDS011;37545;45.302;-122.946;2023-05-16T06:12:33;5.90;;;1.90;;
51467;SDS011;37545;45.302;-122.946;2023-05-16T06:15:02;4.55;;;2.00;;
51467;SDS011;37545;45.302;-122.946;2023-05-16T06:17:32;5.30;;;1.55;;
51467;SDS011;37545;45.302;-122.946;2023-05-16T06:20:01;8.82;;;2.05;;
51467;SDS011;37545;45.302;-122.946;2023-05-16T06:22:38;4.18;;;1.58;;
51467;SDS011;37545;45.302;-122.946;2023-05-16T06:25:20;4.20;;;1.50;;
51467;SDS011;37545;45.302;-122.946;2023-05-16T06:27:48;3.80;;;1.65;;
51467;SDS011;37545;45.302;-122.946;2023-05-16T06:30:17;8.75;;;1.83;;
51467;SDS011;37545;45.302;-122.946;2023-05-16T06:32:47;2.78;;;1.60;;
51467;SDS011;37545;45.302;-122.946;2023-05-16T06:35:18;5.28;;;1.70;;
51467;SDS011;37545;45.302;-122.946;2023-05-16T06:37:46;5.00;;;1.52;;
51467;SDS011;37545;45.302;-122.946;2023-05-16T06:40:15;3.72;;;1.40;;
51467;SDS011;37545;45.302;-122.946;2023-05-16T06:42:44;3.58;;;1.45;;
51467;SDS011;37545;45.302;-122.946;2023-05-16T06:45:12;4.88;;;1.50;;
51467;SDS011;37545;45.302;-122.946;2023-05-16T06:47:41;3.80;;;1.55;;
51467;SDS011;37545;45.302;-122.946;2023-05-16T06:50:11;4.47;;;1.42;;
51467;SDS011;37545;45.302;-122.946;2023-05-16T06:52:40;5.35;;;1.58;;
51467;SDS011;37545;45.302;-122.946;2023-05-16T06:55:09;3.33;;;1.23;;
51467;SDS011;37545;45.302;-122.946;2023-05-16T06:57:37;4.35;;;1.77;;
51467;SDS011;37545;45.302;-122.946;2023-05-16T07:00:06;5.57;;;1.38;;
51467;SDS011;37545;45.302;-122.946;2023-05-16T07:02:35;1.75;;;1.10;;
51467;SDS011;37545;45.302;-122.946;2023-05-16T07:05:05;2.55;;;1.02;;
51467;SDS011;37545;45.302;-122.946;2023-05-16T07:07:36;6.25;;;1.23;;
51467;SDS011;37545;45.302;-122.946;2023-05-16T07:10:05;3.90;;;1.27;;
51467;SDS011;37545;45.302;-122.946;2023-05-16T07:12:34;5.63;;;1.38;;
51467;SDS011;37545;45.302;-122.946;2023-05-16T07:15:04;3.72;;;1.30;;
51467;SDS011;37545;45.302;-122.946;2023-05-16T07:17:33;4.97;;;1.42;;
51467;SDS011;37545;45.302;-122.946;2023-05-16T07:20:01;3.25;;;1.23;;
51467;SDS011;37545;45.302;-122.946;2023-05-16T07:22:30;3.22;;;1.48;;
51467;SDS011;37545;45.302;-122.946;2023-05-16T07:25:00;2.40;;;0.95;;
51467;SDS011;37545;45.302;-122.946;2023-05-16T07:27:29;3.28;;;1.15;;
51467;SDS011;37545;45.302;-122.946;2023-05-16T07:29:58;5.55;;;1.48;;
51467;SDS011;37545;45.302;-122.946;2023-05-16T07:32:26;4.95;;;1.60;;
51467;SDS011;37545;45.302;-122.946;2023-05-16T07:34:55;1.42;;;0.95;;
51467;SDS011;37545;45.302;-122.946;2023-05-16T07:37:23;3.25;;;1.20;;
51467;SDS011;37545;45.302;-122.946;2023-05-16T07:39:52;4.00;;;1.42;;
51467;SDS011;37545;45.302;-122.946;2023-05-16T07:42:22;4.75;;;1.55;;
51467;SDS011;37545;45.302;-122.946;2023-05-16T07:44:51;1.98;;;0.95;;
51467;SDS011;37545;45.302;-122.946;2023-05-16T07:47:19;2.40;;;1.33;;
51467;SDS011;37545;45.302;-122.946;2023-05-16T07:49:47;1.73;;;1.05;;
51467;SDS011;37545;45.302;-122.946;2023-05-16T07:52:16;5.03;;;1.17;;
51467;SDS011;37545;45.302;-122.946;2023-05-16T07:54:45;2.00;;;1.10;;
51467;SDS011;37545;45.302;-122.946;2023-05-16T07:57:14;5.85;;;1.67;;
51467;SDS011;37545;45.302;-122.946;2023-05-16T07:59:44;3.05;;;1.15;;
51467;SDS011;37545;45.302;-122.946;2023-05-16T08:02:13;2.55;;;1.15;;
51467;SDS011;37545;45.302;-122.946;2023-05-16T08:04:42;5.38;;;1.65;;
51467;SDS011;37545;45.302;-122.946;2023-05-16T08:07:10;2.60;;;1.02;;
51467;SDS011;37545;45.302;-122.946;2023-05-16T08:09:39;3.58;;;1.20;;
51467;SDS011;37545;45.302;-122.946;2023-05-16T08:12:08;5.03;;;1.52;;
51467;SDS011;37545;45.302;-122.946;2023-05-16T08:14:36;2.42;;;1.30;;
51467;SDS011;37545;45.302;-122.946;2023-05-16T08:17:07;1.80;;;0.98;;
51467;SDS011;37545;45.302;-122.946;2023-05-16T08:19:35;2.17;;;1.00;;
51467;SDS011;37545;45.302;-122.946;2023-05-16T08:22:05;5.15;;;1.85;;
51467;SDS011;37545;45.302;-122.946;2023-05-16T08:24:35;2.47;;;1.23;;
51467;SDS011;37545;45.302;-122.946;2023-05-16T08:27:04;2.67;;;1.20;;
51467;SDS011;37545;45.302;-122.946;2023-05-16T08:29:33;2.38;;;1.27;;
51467;SDS011;37545;45.302;-122.946;2023-05-16T08:32:02;5.72;;;1.45;;
51467;SDS011;37545;45.302;-122.946;2023-05-16T08:34:32;1.98;;;1.10;;
51467;SDS011;37545;45.302;-122.946;2023-05-16T08:37:01;2.90;;;1.20;;
51467;SDS011;37545;45.302;-122.946;2023-05-16T08:39:30;3.08;;;1.30;;
51467;SDS011;37545;45.302;-122.946;2023-05-16T08:41:59;2.13;;;1.15;;
51467;SDS011;37545;45.302;-122.946;2023-05-16T08:44:28;1.58;;;1.10;;
51467;SDS011;37545;45.302;-122.946;2023-05-16T08:46:57;1.73;;;1.23;;
51467;SDS011;37545;45.302;-122.946;2023-05-16T08:49:35;2.45;;;1.33;;
51467;SDS011;37545;45.302;-122.946;2023-05-16T08:54:35;4.38;;;1.23;;
51467;SDS011;37545;45.302;-122.946;2023-05-16T08:57:03;3.67;;;0.93;;
51467;SDS011;37545;45.302;-122.946;2023-05-16T08:59:33;3.05;;;0.95;;
51467;SDS011;37545;45.302;-122.946;2023-05-16T09:02:02;1.75;;;1.00;;
51467;SDS011;37545;45.302;-122.946;2023-05-16T09:04:32;3.92;;;1.33;;
51467;SDS011;37545;45.302;-122.946;2023-05-16T09:07:03;2.53;;;0.95;;
51467;SDS011;37545;45.302;-122.946;2023-05-16T09:09:32;3.90;;;1.30;;
51467;SDS011;37545;45.302;-122.946;2023-05-16T09:12:01;1.58;;;0.95;;
51467;SDS011;37545;45.302;-122.946;2023-05-16T09:14:29;3.15;;;1.08;;
51467;SDS011;37545;45.302;-122.946;2023-05-16T09:17:04;4.03;;;1.13;;
51467;SDS011;37545;45.302;-122.946;2023-05-16T09:19:37;4.50;;;1.20;;
51467;SDS011;37545;45.302;-122.946;2023-05-16T09:22:08;5.85;;;1.38;;
51467;SDS011;37545;45.302;-122.946;2023-05-16T09:24:40;1.98;;;1.30;;
51467;SDS011;37545;45.302;-122.946;2023-05-16T09:27:09;4.13;;;1.70;;
51467;SDS011;37545;45.302;-122.946;2023-05-16T09:29:39;3.03;;;0.95;;
51467;SDS011;37545;45.302;-122.946;2023-05-16T09:32:08;3.45;;;1.35;;
51467;SDS011;37545;45.302;-122.946;2023-05-16T09:34:40;4.50;;;1.08;;
51467;SDS011;37545;45.302;-122.946;2023-05-16T09:37:14;4.03;;;1.20;;
51467;SDS011;37545;45.302;-122.946;2023-05-16T09:39:44;5.28;;;1.33;;
51467;SDS011;37545;45.302;-122.946;2023-05-16T09:42:14;1.23;;;1.13;;
51467;SDS011;37545;45.302;-122.946;2023-05-16T09:44:45;1.67;;;1.08;;
51467;SDS011;37545;45.302;-122.946;2023-05-16T09:47:15;2.72;;;1.23;;
51467;SDS011;37545;45.302;-122.946;2023-05-16T09:49:45;3.00;;;1.20;;
51467;SDS011;37545;45.302;-122.946;2023-05-16T09:52:16;3.00;;;1.20;;
51467;SDS011;37545;45.302;-122.946;2023-05-16T09:54:45;3.38;;;1.00;;
51467;SDS011;37545;45.302;-122.946;2023-05-16T09:57:16;1.85;;;1.15;;
51467;SDS011;37545;45.302;-122.946;2023-05-16T09:59:46;2.42;;;1.35;;
51467;SDS011;37545;45.302;-122.946;2023-05-16T10:02:14;4.20;;;1.60;;
51467;SDS011;37545;45.302;-122.946;2023-05-16T10:04:43;4.75;;;1.75;;
51467;SDS011;37545;45.302;-122.946;2023-05-16T10:07:17;2.72;;;1.05;;
51467;SDS011;37545;45.302;-122.946;2023-05-16T10:09:48;3.67;;;1.33;;
51467;SDS011;37545;45.302;-122.946;2023-05-16T10:12:24;4.35;;;1.23;;
51467;SDS011;37545;45.302;-122.946;2023-05-16T10:17:24;1.77;;;1.02;;
51467;SDS011;37545;45.302;-122.946;2023-05-16T10:19:59;3.00;;;1.10;;
51467;SDS011;37545;45.302;-122.946;2023-05-16T10:22:33;2.20;;;1.17;;
51467;SDS011;37545;45.302;-122.946;2023-05-16T10:25:05;1.52;;;1.33;;
51467;SDS011;37545;45.302;-122.946;2023-05-16T10:27:37;3.85;;;1.40;;
51467;SDS011;37545;45.302;-122.946;2023-05-16T10:30:09;6.43;;;1.42;;
51467;SDS011;37545;45.302;-122.946;2023-05-16T10:32:38;4.85;;;1.60;;
51467;SDS011;37545;45.302;-122.946;2023-05-16T10:35:07;2.35;;;1.05;;
51467;SDS011;37545;45.302;-122.946;2023-05-16T10:37:38;5.25;;;1.30;;
51467;SDS011;37545;45.302;-122.946;2023-05-16T10:40:08;3.67;;;1.42;;
51467;SDS011;37545;45.302;-122.946;2023-05-16T10:42:37;2.90;;;1.55;;
51467;SDS011;37545;45.302;-122.946;2023-05-16T10:45:08;3.35;;;1.35;;
51467;SDS011;37545;45.302;-122.946;2023-05-16T10:47:53;4.30;;;1.33;;
51467;SDS011;37545;45.302;-122.946;2023-05-16T10:50:32;2.58;;;1.48;;
51467;SDS011;37545;45.302;-122.946;2023-05-16T10:56:08;3.38;;;1.13;;
51467;SDS011;37545;45.302;-122.946;2023-05-16T10:58:45;6.55;;;1.45;;
51467;SDS011;37545;45.302;-122.946;2023-05-16T11:01:18;4.00;;;1.20;;
51467;SDS011;37545;45.302;-122.946;2023-05-16T11:04:07;4.00;;;1.15;;
51467;SDS011;37545;45.302;-122.946;2023-05-16T11:06:48;4.25;;;1.10;;
51467;SDS011;37545;45.302;-122.946;2023-05-16T11:09:20;2.90;;;1.60;;
51467;SDS011;37545;45.302;-122.946;2023-05-16T11:11:57;4.10;;;1.30;;
51467;SDS011;37545;45.302;-122.946;2023-05-16T11:14:34;6.13;;;1.80;;
51467;SDS011;37545;45.302;-122.946;2023-05-16T11:17:07;5.78;;;1.50;;
51467;SDS011;37545;45.302;-122.946;2023-05-16T11:19:41;3.47;;;1.48;;
51467;SDS011;37545;45.302;-122.946;2023-05-16T11:22:11;4.68;;;1.77;;
51467;SDS011;37545;45.302;-122.946;2023-05-16T11:24:53;3.45;;;1.48;;
51467;SDS011;37545;45.302;-122.946;2023-05-16T11:27:26;2.22;;;1.30;;
51467;SDS011;37545;45.302;-122.946;2023-05-16T11:29:57;5.88;;;1.40;;
51467;SDS011;37545;45.302;-122.946;2023-05-16T11:32:28;1.40;;;1.05;;
51467;SDS011;37545;45.302;-122.946;2023-05-16T11:34:57;3.88;;;1.40;;
51467;SDS011;37545;45.302;-122.946;2023-05-16T11:37:26;3.17;;;1.50;;
51467;SDS011;37545;45.302;-122.946;2023-05-16T11:39:59;2.47;;;1.20;;
51467;SDS011;37545;45.302;-122.946;2023-05-16T11:42:29;6.05;;;1.50;;
51467;SDS011;37545;45.302;-122.946;2023-05-16T11:45:07;3.65;;;1.23;;
51467;SDS011;37545;45.302;-122.946;2023-05-16T11:47:37;3.28;;;1.27;;
51467;SDS011;37545;45.302;-122.946;2023-05-16T11:50:07;2.70;;;1.27;;
51467;SDS011;37545;45.302;-122.946;2023-05-16T11:52:40;3.00;;;1.30;;
51467;SDS011;37545;45.302;-122.946;2023-05-16T11:55:12;2.70;;;1.42;;
51467;SDS011;37545;45.302;-122.946;2023-05-16T11:57:42;1.98;;;1.17;;
51467;SDS011;37545;45.302;-122.946;2023-05-16T12:00:13;1.88;;;1.05;;
51467;SDS011;37545;45.302;-122.946;2023-05-16T12:02:44;2.65;;;1.20;;
51467;SDS011;37545;45.302;-122.946;2023-05-16T12:05:14;5.53;;;1.15;;
51467;SDS011;37545;45.302;-122.946;2023-05-16T12:07:50;4.05;;;1.20;;
51467;SDS011;37545;45.302;-122.946;2023-05-16T12:10:21;3.13;;;1.10;;
51467;SDS011;37545;45.302;-122.946;2023-05-16T12:12:50;4.60;;;1.50;;
51467;SDS011;37545;45.302;-122.946;2023-05-16T12:15:19;3.42;;;1.25;;
51467;SDS011;37545;45.302;-122.946;2023-05-16T12:17:48;3.35;;;1.20;;
51467;SDS011;37545;45.302;-122.946;2023-05-16T12:20:17;3.80;;;1.35;;
51467;SDS011;37545;45.302;-122.946;2023-05-16T12:22:46;5.45;;;1.88;;
51467;SDS011;37545;45.302;-122.946;2023-05-16T12:25:25;4.35;;;1.50;;
51467;SDS011;37545;45.302;-122.946;2023-05-16T12:28:01;4.20;;;1.52;;
51467;SDS011;37545;45.302;-122.946;2023-05-16T12:30:32;3.88;;;1.30;;
51467;SDS011;37545;45.302;-122.946;2023-05-16T12:33:02;3.67;;;1.40;;
51467;SDS011;37545;45.302;-122.946;2023-05-16T12:35:36;3.05;;;1.40;;
51467;SDS011;37545;45.302;-122.946;2023-05-16T12:38:06;2.83;;;1.20;;
51467;SDS011;37545;45.302;-122.946;2023-05-16T12:40:38;3.15;;;1.35;;
51467;SDS011;37545;45.302;-122.946;2023-05-16T12:43:12;2.42;;;0.95;;
51467;SDS011;37545;45.302;-122.946;2023-05-16T12:45:41;1.63;;;1.23;;
51467;SDS011;37545;45.302;-122.946;2023-05-16T12:48:15;3.08;;;1.20;;
51467;SDS011;37545;45.302;-122.946;2023-05-16T12:50:44;4.85;;;1.27;;
51467;SDS011;37545;45.302;-122.946;2023-05-16T12:53:13;1.73;;;1.00;;
51467;SDS011;37545;45.302;-122.946;2023-05-16T12:55:44;3.95;;;1.10;;
51467;SDS011;37545;45.302;-122.946;2023-05-16T12:58:13;2.33;;;0.98;;
51467;SDS011;37545;45.302;-122.946;2023-05-16T13:00:42;1.77;;;1.20;;
51467;SDS011;37545;45.302;-122.946;2023-05-16T13:03:10;2.40;;;1.23;;
51467;SDS011;37545;45.302;-122.946;2023-05-16T13:05:39;3.15;;;1.70;;
51467;SDS011;37545;45.302;-122.946;2023-05-16T13:08:08;2.85;;;1.20;;
51467;SDS011;37545;45.302;-122.946;2023-05-16T13:10:36;2.05;;;1.10;;
51467;SDS011;37545;45.302;-122.946;2023-05-16T13:13:06;2.80;;;1.30;;
51467;SDS011;37545;45.302;-122.946;2023-05-16T13:15:35;3.47;;;1.30;;
51467;SDS011;37545;45.302;-122.946;2023-05-16T13:18:04;2.45;;;1.33;;
51467;SDS011;37545;45.302;-122.946;2023-05-16T13:20:33;5.82;;;1.30;;
51467;SDS011;37545;45.302;-122.946;2023-05-16T13:23:01;3.20;;;1.15;;
51467;SDS011;37545;45.302;-122.946;2023-05-16T13:25:30;3.17;;;1.55;;
51467;SDS011;37545;45.302;-122.946;2023-05-16T13:27:59;5.38;;;1.80;;
51467;SDS011;37545;45.302;-122.946;2023-05-16T13:30:29;2.17;;;1.38;;
51467;SDS011;37545;45.302;-122.946;2023-05-16T13:32:58;4.63;;;1.83;;
51467;SDS011;37545;45.302;-122.946;2023-05-16T13:35:26;4.65;;;1.40;;
51467;SDS011;37545;45.302;-122.946;2023-05-16T13:37:55;5.43;;;1.30;;
51467;SDS011;37545;45.302;-122.946;2023-05-16T13:40:23;1.75;;;1.25;;
51467;SDS011;37545;45.302;-122.946;2023-05-16T13:42:52;2.00;;;1.40;;
51467;SDS011;37545;45.302;-122.946;2023-05-16T13:45:21;1.80;;;1.63;;
51467;SDS011;37545;45.302;-122.946;2023-05-16T13:47:52;2.47;;;1.50;;
51467;SDS011;37545;45.302;-122.946;2023-05-16T13:50:20;3.50;;;1.50;;
51467;SDS011;37545;45.302;-122.946;2023-05-16T13:52:49;3.40;;;1.20;;
51467;SDS011;37545;45.302;-122.946;2023-05-16T13:55:17;4.05;;;1.63;;
51467;SDS011;37545;45.302;-122.946;2023-05-16T13:57:46;3.28;;;1.52;;
51467;SDS011;37545;45.302;-122.946;2023-05-16T14:00:15;2.70;;;1.40;;
51467;SDS011;37545;45.302;-122.946;2023-05-16T14:02:44;4.03;;;1.50;;
51467;SDS011;37545;45.302;-122.946;2023-05-16T14:05:14;6.53;;;1.70;;
51467;SDS011;37545;45.302;-122.946;2023-05-16T14:07:43;2.70;;;1.77;;
51467;SDS011;37545;45.302;-122.946;2023-05-16T14:10:11;10.73;;;2.22;;
51467;SDS011;37545;45.302;-122.946;2023-05-16T14:12:40;5.85;;;1.90;;
51467;SDS011;37545;45.302;-122.946;2023-05-16T14:15:09;4.55;;;1.52;;
51467;SDS011;37545;45.302;-122.946;2023-05-16T14:17:37;5.63;;;1.75;;
51467;SDS011;37545;45.302;-122.946;2023-05-16T14:20:06;8.52;;;2.13;;
51467;SDS011;37545;45.302;-122.946;2023-05-16T14:22:37;5.93;;;1.85;;
51467;SDS011;37545;45.302;-122.946;2023-05-16T14:25:06;6.55;;;1.83;;
51467;SDS011;37545;45.302;-122.946;2023-05-16T14:27:35;7.97;;;1.95;;
51467;SDS011;37545;45.302;-122.946;2023-05-16T14:30:04;4.65;;;2.05;;
51467;SDS011;37545;45.302;-122.946;2023-05-16T14:32:34;3.85;;;1.80;;